sensor_id;sensor_type;location;lat;lon;timestamp;P1;durP1;ratioP1;P2;durP2;ratioP2
74059;SDS011;62414;53.436;8.828;2023-08-06T00:01:40;6.88;;;2.60;;
74059;SDS011;62414;53.436;8.828;2023-08-06T00:04:05;4.87;;;2.57;;
74059;SDS011;62414;53.436;8.828;2023-08-06T00:06:32;4.90;;;2.40;;
74059;SDS011;62414;53.436;8.828;2023-08-06T00:08:57;4.93;;;2.30;;
74059;SDS011;62414;53.436;8.828;2023-08-06T00:11:23;6.23;;;2.63;;
74059;SDS011;62414;53.436;8.828;2023-08-06T00:13:48;5.75;;;2.63;;
74059;SDS011;62414;53.436;8.828;2023-08-06T00:16:14;5.27;;;2.37;;
74059;SDS011;62414;53.436;8.828;2023-08-06T00:18:40;5.33;;;2.90;;
74059;SDS011;62414;53.436;8.828;2023-08-06T00:21:05;5.43;;;2.72;;
74059;SDS011;62414;53.436;8.828;2023-08-06T00:23:32;5.80;;;2.57;;
74059;SDS011;62414;53.436;8.828;2023-08-06T00:25:57;6.22;;;2.70;;
74059;SDS011;62414;53.436;8.828;2023-08-06T00:28:23;6.43;;;2.70;;
74059;SDS011;62414;53.436;8.828;2023-08-06T00:30:52;7.07;;;2.70;;
74059;SDS011;62414;53.436;8.828;2023-08-06T00:33:17;5.65;;;2.72;;
74059;SDS011;62414;53.436;8.828;2023-08-06T00:35:43;5.37;;;2.63;;
74059;SDS011;62414;53.436;8.828;2023-08-06T00:38:08;5.10;;;2.40;;
74059;SDS011;62414;53.436;8.828;2023-08-06T00:40:35;6.70;;;2.60;;
74059;SDS011;62414;53.436;8.828;2023-08-06T00:43:01;6.00;;;2.70;;
74059;SDS011;62414;53.436;8.828;2023-08-06T00:45:26;5.65;;;2.95;;
74059;SDS011;62414;53.436;8.828;2023-08-06T00:47:52;5.53;;;2.60;;
74059;SDS011;62414;53.436;8.828;2023-08-06T00:50:18;4.93;;;2.73;;
74059;SDS011;62414;53.436;8.828;2023-08-06T00:52:43;5.30;;;2.73;;
74059;SDS011;62414;53.436;8.828;2023-08-06T00:55:09;7.00;;;2.60;;
74059;SDS011;62414;53.436;8.828;2023-08-06T00:57:36;6.77;;;2.70;;
74059;SDS011;62414;53.436;8.828;2023-08-06T01:00:02;5.82;;;2.80;;
74059;SDS011;62414;53.436;8.828;2023-08-06T01:02:28;5.82;;;2.53;;
74059;SDS011;62414;53.436;8.828;2023-08-06T01:04:53;6.07;;;2.93;;
74059;SDS011;62414;53.436;8.828;2023-08-06T01:07:21;6.43;;;2.90;;
74059;SDS011;62414;53.436;8.828;2023-08-06T01:09:57;5.60;;;2.73;;
74059;SDS011;62414;53.436;8.828;2023-08-06T01:12:29;5.97;;;2.83;;
74059;SDS011;62414;53.436;8.828;2023-08-06T01:15:01;6.07;;;2.95;;
74059;SDS011;62414;53.436;8.828;2023-08-06T01:17:32;7.78;;;3.17;;
74059;SDS011;62414;53.436;8.828;2023-08-06T01:19:58;8.18;;;2.80;;
74059;SDS011;62414;53.436;8.828;2023-08-06T01:22:25;6.17;;;2.80;;
74059;SDS011;62414;53.436;8.828;2023-08-06T01:24:50;5.80;;;2.60;;
74059;SDS011;62414;53.436;8.828;2023-08-06T01:27:17;6.23;;;2.63;;
74059;SDS011;62414;53.436;8.828;2023-08-06T01:29:49;6.00;;;2.85;;
74059;SDS011;62414;53.436;8.828;2023-08-06T01:32:20;6.35;;;2.88;;
74059;SDS011;62414;53.436;8.828;2023-08-06T01:34:46;5.30;;;2.70;;
74059;SDS011;62414;53.436;8.828;2023-08-06T01:37:12;6.10;;;2.80;;
74059;SDS011;62414;53.436;8.828;2023-08-06T01:39:40;7.10;;;3.15;;
74059;SDS011;62414;53.436;8.828;2023-08-06T01:42:07;5.70;;;2.70;;
74059;SDS011;62414;53.436;8.828;2023-08-06T01:44:33;6.22;;;3.38;;
74059;SDS011;62414;53.436;8.828;2023-08-06T01:46:59;6.82;;;3.03;;
74059;SDS011;62414;53.436;8.828;2023-08-06T01:49:24;6.47;;;3.10;;
74059;SDS011;62414;53.436;8.828;2023-08-06T01:51:50;5.70;;;3.13;;
74059;SDS011;62414;53.436;8.828;2023-08-06T01:54:15;8.30;;;3.40;;
74059;SDS011;62414;53.436;8.828;2023-08-06T01:56:42;7.03;;;3.50;;
74059;SDS011;62414;53.436;8.828;2023-08-06T01:59:08;7.30;;;3.65;;
74059;SDS011;62414;53.436;8.828;2023-08-06T02:01:33;7.83;;;3.50;;
74059;SDS011;62414;53.436;8.828;2023-08-06T02:03:58;6.90;;;3.40;;
74059;SDS011;62414;53.436;8.828;2023-08-06T02:06:24;7.18;;;3.53;;
74059;SDS011;62414;53.436;8.828;2023-08-06T02:08:49;6.57;;;3.20;;
74059;SDS011;62414;53.436;8.828;2023-08-06T02:11:15;7.50;;;3.43;;
74059;SDS011;62414;53.436;8.828;2023-08-06T02:13:42;7.03;;;3.22;;
74059;SDS011;62414;53.436;8.828;2023-08-06T02:16:07;8.83;;;3.43;;
74059;SDS011;62414;53.436;8.828;2023-08-06T02:18:34;6.25;;;3.45;;
74059;SDS011;62414;53.436;8.828;2023-08-06T02:21:00;8.70;;;3.70;;
74059;SDS011;62414;53.436;8.828;2023-08-06T02:23:27;8.73;;;3.57;;
74059;SDS011;62414;53.436;8.828;2023-08-06T02:25:59;6.47;;;3.60;;
74059;SDS011;62414;53.436;8.828;2023-08-06T02:28:26;8.73;;;3.77;;
74059;SDS011;62414;53.436;8.828;2023-08-06T02:30:53;8.20;;;3.60;;
74059;SDS011;62414;53.436;8.828;2023-08-06T02:33:19;8.27;;;4.03;;
74059;SDS011;62414;53.436;8.828;2023-08-06T02:35:44;7.10;;;3.80;;
74059;SDS011;62414;53.436;8.828;2023-08-06T02:38:10;7.70;;;4.13;;
74059;SDS011;62414;53.436;8.828;2023-08-06T02:40:35;11.02;;;3.90;;
74059;SDS011;62414;53.436;8.828;2023-08-06T02:43:01;9.07;;;4.40;;
74059;SDS011;62414;53.436;8.828;2023-08-06T02:45:26;11.57;;;4.40;;
74059;SDS011;62414;53.436;8.828;2023-08-06T02:47:53;8.50;;;3.97;;
74059;SDS011;62414;53.436;8.828;2023-08-06T02:50:19;10.35;;;4.07;;
74059;SDS011;62414;53.436;8.828;2023-08-06T02:52:44;8.47;;;3.90;;
74059;SDS011;62414;53.436;8.828;2023-08-06T02:55:10;9.10;;;4.60;;
74059;SDS011;62414;53.436;8.828;2023-08-06T02:57:40;9.85;;;4.45;;
74059;SDS011;62414;53.436;8.828;2023-08-06T03:00:06;8.85;;;4.57;;
74059;SDS011;62414;53.436;8.828;2023-08-06T03:02:32;8.50;;;4.50;;
74059;SDS011;62414;53.436;8.828;2023-08-06T03:05:13;8.27;;;4.17;;
74059;SDS011;62414;53.436;8.828;2023-08-06T03:07:43;10.93;;;5.10;;
74059;SDS011;62414;53.436;8.828;2023-08-06T03:10:14;14.27;;;4.90;;
74059;SDS011;62414;53.436;8.828;2023-08-06T03:12:41;9.93;;;4.70;;
74059;SDS011;62414;53.436;8.828;2023-08-06T03:15:07;11.47;;;4.67;;
74059;SDS011;62414;53.436;8.828;2023-08-06T03:17:33;11.23;;;4.97;;
74059;SDS011;62414;53.436;8.828;2023-08-06T03:19:59;10.02;;;4.85;;
74059;SDS011;62414;53.436;8.828;2023-08-06T03:22:26;9.52;;;4.80;;
74059;SDS011;62414;53.436;8.828;2023-08-06T03:24:52;11.40;;;5.13;;
74059;SDS011;62414;53.436;8.828;2023-08-06T03:27:20;10.63;;;5.22;;
74059;SDS011;62414;53.436;8.828;2023-08-06T03:29:48;10.98;;;5.13;;
74059;SDS011;62414;53.436;8.828;2023-08-06T03:32:14;12.40;;;5.28;;
74059;SDS011;62414;53.436;8.828;2023-08-06T03:34:40;13.80;;;5.43;;
74059;SDS011;62414;53.436;8.828;2023-08-06T03:37:06;9.80;;;5.00;;
74059;SDS011;62414;53.436;8.828;2023-08-06T03:39:34;12.35;;;5.30;;
74059;SDS011;62414;53.436;8.828;2023-08-06T03:41:59;13.10;;;5.37;;
74059;SDS011;62414;53.436;8.828;2023-08-06T03:44:25;12.23;;;5.90;;
74059;SDS011;62414;53.436;8.828;2023-08-06T03:46:51;10.32;;;5.38;;
74059;SDS011;62414;53.436;8.828;2023-08-06T03:49:16;11.03;;;5.60;;
74059;SDS011;62414;53.436;8.828;2023-08-06T03:51:42;12.03;;;5.80;;
74059;SDS011;62414;53.436;8.828;2023-08-06T03:54:07;10.20;;;5.28;;
74059;SDS011;62414;53.436;8.828;2023-08-06T03:56:34;13.70;;;5.60;;
74059;SDS011;62414;53.436;8.828;2023-08-06T03:59:00;11.73;;;5.72;;
74059;SDS011;62414;53.436;8.828;2023-08-06T04:01:25;11.37;;;5.87;;
74059;SDS011;62414;53.436;8.828;2023-08-06T04:03:52;15.25;;;6.15;;
74059;SDS011;62414;53.436;8.828;2023-08-06T04:06:17;12.47;;;6.33;;
74059;SDS011;62414;53.436;8.828;2023-08-06T04:08:43;12.52;;;6.05;;
74059;SDS011;62414;53.436;8.828;2023-08-06T04:11:08;13.00;;;6.20;;
74059;SDS011;62414;53.436;8.828;2023-08-06T04:13:35;13.63;;;6.33;;
74059;SDS011;62414;53.436;8.828;2023-08-06T04:16:01;15.00;;;6.63;;
74059;SDS011;62414;53.436;8.828;2023-08-06T04:18:27;14.88;;;6.60;;
74059;SDS011;62414;53.436;8.828;2023-08-06T04:20:52;15.77;;;7.37;;
74059;SDS011;62414;53.436;8.828;2023-08-06T04:23:18;17.50;;;7.35;;
74059;SDS011;62414;53.436;8.828;2023-08-06T04:25:43;14.80;;;7.70;;
74059;SDS011;62414;53.436;8.828;2023-08-06T04:28:09;20.15;;;8.05;;
74059;SDS011;62414;53.436;8.828;2023-08-06T04:30:36;19.47;;;7.07;;
74059;SDS011;62414;53.436;8.828;2023-08-06T04:33:02;16.27;;;7.20;;
74059;SDS011;62414;53.436;8.828;2023-08-06T04:35:27;18.13;;;7.40;;
74059;SDS011;62414;53.436;8.828;2023-08-06T04:37:53;16.15;;;6.97;;
74059;SDS011;62414;53.436;8.828;2023-08-06T04:40:18;16.10;;;7.10;;
74059;SDS011;62414;53.436;8.828;2023-08-06T04:42:44;15.97;;;7.30;;
74059;SDS011;62414;53.436;8.828;2023-08-06T04:45:09;20.07;;;7.50;;
74059;SDS011;62414;53.436;8.828;2023-08-06T04:47:36;15.85;;;7.20;;
74059;SDS011;62414;53.436;8.828;2023-08-06T04:50:02;17.05;;;7.60;;
74059;SDS011;62414;53.436;8.828;2023-08-06T04:52:28;16.67;;;7.53;;
74059;SDS011;62414;53.436;8.828;2023-08-06T04:54:53;15.60;;;7.13;;
74059;SDS011;62414;53.436;8.828;2023-08-06T04:57:19;17.63;;;7.70;;
74059;SDS011;62414;53.436;8.828;2023-08-06T04:59:44;17.10;;;7.43;;
74059;SDS011;62414;53.436;8.828;2023-08-06T05:02:10;17.97;;;7.73;;
74059;SDS011;62414;53.436;8.828;2023-08-06T05:04:37;18.60;;;7.43;;
74059;SDS011;62414;53.436;8.828;2023-08-06T05:07:02;16.63;;;6.97;;
74059;SDS011;62414;53.436;8.828;2023-08-06T05:09:28;15.15;;;7.18;;
74059;SDS011;62414;53.436;8.828;2023-08-06T05:11:53;16.23;;;7.90;;
74059;SDS011;62414;53.436;8.828;2023-08-06T05:14:19;17.87;;;7.57;;
74059;SDS011;62414;53.436;8.828;2023-08-06T05:16:44;18.85;;;8.05;;
74059;SDS011;62414;53.436;8.828;2023-08-06T05:19:10;19.37;;;8.20;;
74059;SDS011;62414;53.436;8.828;2023-08-06T05:21:36;17.73;;;8.40;;
74059;SDS011;62414;53.436;8.828;2023-08-06T05:24:02;21.15;;;9.20;;
74059;SDS011;62414;53.436;8.828;2023-08-06T05:26:28;21.35;;;9.27;;
74059;SDS011;62414;53.436;8.828;2023-08-06T05:28:53;19.30;;;8.80;;
74059;SDS011;62414;53.436;8.828;2023-08-06T05:31:19;24.90;;;9.60;;
74059;SDS011;62414;53.436;8.828;2023-08-06T05:33:44;22.50;;;9.82;;
74059;SDS011;62414;53.436;8.828;2023-08-06T05:36:09;21.70;;;9.43;;
74059;SDS011;62414;53.436;8.828;2023-08-06T05:38:36;22.60;;;9.80;;
74059;SDS011;62414;53.436;8.828;2023-08-06T05:41:02;24.30;;;10.13;;
74059;SDS011;62414;53.436;8.828;2023-08-06T05:43:27;23.13;;;10.33;;
74059;SDS011;62414;53.436;8.828;2023-08-06T05:45:52;25.57;;;10.90;;
74059;SDS011;62414;53.436;8.828;2023-08-06T05:48:18;23.03;;;9.60;;
74059;SDS011;62414;53.436;8.828;2023-08-06T05:50:43;25.17;;;9.97;;
74059;SDS011;62414;53.436;8.828;2023-08-06T05:53:09;25.50;;;10.73;;
74059;SDS011;62414;53.436;8.828;2023-08-06T05:55:36;22.70;;;10.70;;
74059;SDS011;62414;53.436;8.828;2023-08-06T05:58:01;21.58;;;10.23;;
74059;SDS011;62414;53.436;8.828;2023-08-06T06:00:27;21.10;;;9.80;;
74059;SDS011;62414;53.436;8.828;2023-08-06T06:02:52;22.60;;;9.90;;
74059;SDS011;62414;53.436;8.828;2023-08-06T06:05:17;18.53;;;8.90;;
74059;SDS011;62414;53.436;8.828;2023-08-06T06:07:43;18.03;;;8.90;;
74059;SDS011;62414;53.436;8.828;2023-08-06T06:10:08;17.90;;;8.57;;
74059;SDS011;62414;53.436;8.828;2023-08-06T06:12:37;15.77;;;7.82;;
74059;SDS011;62414;53.436;8.828;2023-08-06T06:15:03;16.75;;;8.55;;
74059;SDS011;62414;53.436;8.828;2023-08-06T06:17:30;18.83;;;8.95;;
74059;SDS011;62414;53.436;8.828;2023-08-06T06:19:55;20.20;;;8.80;;
74059;SDS011;62414;53.436;8.828;2023-08-06T06:22:20;18.33;;;8.23;;
74059;SDS011;62414;53.436;8.828;2023-08-06T06:24:46;17.77;;;8.30;;
74059;SDS011;62414;53.436;8.828;2023-08-06T06:27:11;16.98;;;8.65;;
74059;SDS011;62414;53.436;8.828;2023-08-06T06:29:38;17.27;;;8.67;;
74059;SDS011;62414;53.436;8.828;2023-08-06T06:32:04;16.20;;;8.05;;
74059;SDS011;62414;53.436;8.828;2023-08-06T06:34:30;15.10;;;8.27;;
74059;SDS011;62414;53.436;8.828;2023-08-06T06:36:55;15.38;;;7.45;;
74059;SDS011;62414;53.436;8.828;2023-08-06T06:39:20;15.33;;;7.67;;
74059;SDS011;62414;53.436;8.828;2023-08-06T06:41:46;13.40;;;7.10;;
74059;SDS011;62414;53.436;8.828;2023-08-06T06:44:22;15.33;;;7.90;;
74059;SDS011;62414;53.436;8.828;2023-08-06T06:46:49;14.55;;;7.32;;
74059;SDS011;62414;53.436;8.828;2023-08-06T06:49:14;15.45;;;7.80;;
74059;SDS011;62414;53.436;8.828;2023-08-06T06:51:40;14.57;;;7.33;;
74059;SDS011;62414;53.436;8.828;2023-08-06T06:54:05;15.67;;;7.63;;
74059;SDS011;62414;53.436;8.828;2023-08-06T06:56:31;14.90;;;7.53;;
74059;SDS011;62414;53.436;8.828;2023-08-06T06:58:56;13.60;;;7.50;;
74059;SDS011;62414;53.436;8.828;2023-08-06T07:01:22;15.60;;;7.63;;
74059;SDS011;62414;53.436;8.828;2023-08-06T07:03:48;14.13;;;7.67;;
74059;SDS011;62414;53.436;8.828;2023-08-06T07:06:14;15.35;;;7.30;;
74059;SDS011;62414;53.436;8.828;2023-08-06T07:08:39;14.40;;;7.67;;
74059;SDS011;62414;53.436;8.828;2023-08-06T07:11:05;13.10;;;7.13;;
74059;SDS011;62414;53.436;8.828;2023-08-06T07:13:31;13.05;;;7.20;;
74059;SDS011;62414;53.436;8.828;2023-08-06T07:15:57;13.67;;;7.03;;
74059;SDS011;62414;53.436;8.828;2023-08-06T07:18:23;11.95;;;6.38;;
74059;SDS011;62414;53.436;8.828;2023-08-06T07:20:50;12.55;;;6.82;;
74059;SDS011;62414;53.436;8.828;2023-08-06T07:23:15;11.37;;;6.57;;
74059;SDS011;62414;53.436;8.828;2023-08-06T07:25:41;13.38;;;6.55;;
74059;SDS011;62414;53.436;8.828;2023-08-06T07:28:06;11.57;;;6.50;;
74059;SDS011;62414;53.436;8.828;2023-08-06T07:30:32;12.63;;;6.37;;
74059;SDS011;62414;53.436;8.828;2023-08-06T07:32:57;12.90;;;6.87;;
74059;SDS011;62414;53.436;8.828;2023-08-06T07:35:22;11.75;;;6.43;;
74059;SDS011;62414;53.436;8.828;2023-08-06T07:37:49;15.90;;;6.23;;
74059;SDS011;62414;53.436;8.828;2023-08-06T07:40:15;11.57;;;6.35;;
74059;SDS011;62414;53.436;8.828;2023-08-06T07:42:40;11.57;;;5.80;;
74059;SDS011;62414;53.436;8.828;2023-08-06T07:45:06;10.60;;;5.72;;
74059;SDS011;62414;53.436;8.828;2023-08-06T07:47:33;8.17;;;4.73;;
74059;SDS011;62414;53.436;8.828;2023-08-06T07:49:59;8.90;;;5.47;;
74059;SDS011;62414;53.436;8.828;2023-08-06T07:52:24;8.50;;;5.20;;
74059;SDS011;62414;53.436;8.828;2023-08-06T07:54:51;8.07;;;5.00;;
74059;SDS011;62414;53.436;8.828;2023-08-06T07:57:16;8.10;;;4.65;;
74059;SDS011;62414;53.436;8.828;2023-08-06T07:59:42;7.83;;;4.90;;
74059;SDS011;62414;53.436;8.828;2023-08-06T08:02:07;8.38;;;4.75;;
74059;SDS011;62414;53.436;8.828;2023-08-06T08:04:33;7.67;;;4.87;;
74059;SDS011;62414;53.436;8.828;2023-08-06T08:06:58;8.20;;;4.30;;
74059;SDS011;62414;53.436;8.828;2023-08-06T08:09:23;7.57;;;4.75;;
74059;SDS011;62414;53.436;8.828;2023-08-06T08:11:50;6.87;;;4.33;;
74059;SDS011;62414;53.436;8.828;2023-08-06T08:14:16;7.25;;;4.22;;
74059;SDS011;62414;53.436;8.828;2023-08-06T08:16:41;7.67;;;4.47;;
74059;SDS011;62414;53.436;8.828;2023-08-06T08:19:07;6.90;;;3.93;;
74059;SDS011;62414;53.436;8.828;2023-08-06T08:21:32;8.50;;;4.63;;
74059;SDS011;62414;53.436;8.828;2023-08-06T08:23:59;7.23;;;4.27;;
74059;SDS011;62414;53.436;8.828;2023-08-06T08:26:24;6.63;;;4.10;;
74059;SDS011;62414;53.436;8.828;2023-08-06T08:28:51;8.53;;;4.07;;
74059;SDS011;62414;53.436;8.828;2023-08-06T08:31:17;7.38;;;3.63;;
74059;SDS011;62414;53.436;8.828;2023-08-06T08:33:42;7.13;;;4.10;;
74059;SDS011;62414;53.436;8.828;2023-08-06T08:36:07;6.93;;;4.00;;
74059;SDS011;62414;53.436;8.828;2023-08-06T08:38:33;6.35;;;4.00;;
74059;SDS011;62414;53.436;8.828;2023-08-06T08:40:58;7.00;;;4.30;;
74059;SDS011;62414;53.436;8.828;2023-08-06T08:43:24;7.60;;;4.37;;
74059;SDS011;62414;53.436;8.828;2023-08-06T08:45:51;7.05;;;3.80;;
74059;SDS011;62414;53.436;8.828;2023-08-06T08:48:17;7.30;;;3.97;;
74059;SDS011;62414;53.436;8.828;2023-08-06T08:50:44;7.20;;;4.55;;
74059;SDS011;62414;53.436;8.828;2023-08-06T08:53:10;7.78;;;4.35;;
74059;SDS011;62414;53.436;8.828;2023-08-06T08:55:36;7.00;;;4.43;;
74059;SDS011;62414;53.436;8.828;2023-08-06T08:58:02;7.37;;;4.00;;
74059;SDS011;62414;53.436;8.828;2023-08-06T09:00:28;6.80;;;4.20;;
74059;SDS011;62414;53.436;8.828;2023-08-06T09:02:55;6.80;;;4.00;;
74059;SDS011;62414;53.436;8.828;2023-08-06T09:05:21;6.05;;;3.38;;
74059;SDS011;62414;53.436;8.828;2023-08-06T09:07:48;5.63;;;3.70;;
74059;SDS011;62414;53.436;8.828;2023-08-06T09:10:15;6.15;;;3.45;;
74059;SDS011;62414;53.436;8.828;2023-08-06T09:12:41;5.37;;;3.53;;
74059;SDS011;62414;53.436;8.828;2023-08-06T09:15:07;7.10;;;3.50;;
74059;SDS011;62414;53.436;8.828;2023-08-06T09:17:33;5.60;;;3.40;;
74059;SDS011;62414;53.436;8.828;2023-08-06T09:20:00;5.83;;;3.30;;
74059;SDS011;62414;53.436;8.828;2023-08-06T09:22:34;6.32;;;3.35;;
74059;SDS011;62414;53.436;8.828;2023-08-06T09:25:00;6.07;;;3.27;;
74059;SDS011;62414;53.436;8.828;2023-08-06T09:27:25;5.67;;;3.00;;
74059;SDS011;62414;53.436;8.828;2023-08-06T09:29:51;4.72;;;2.80;;
74059;SDS011;62414;53.436;8.828;2023-08-06T09:32:17;5.30;;;3.10;;
74059;SDS011;62414;53.436;8.828;2023-08-06T09:34:42;4.88;;;3.05;;
74059;SDS011;62414;53.436;8.828;2023-08-06T09:37:09;6.80;;;3.90;;
74059;SDS011;62414;53.436;8.828;2023-08-06T09:39:35;6.15;;;3.97;;
74059;SDS011;62414;53.436;8.828;2023-08-06T09:42:01;6.85;;;3.80;;
74059;SDS011;62414;53.436;8.828;2023-08-06T09:44:27;6.30;;;3.80;;
74059;SDS011;62414;53.436;8.828;2023-08-06T09:46:54;5.40;;;3.35;;
74059;SDS011;62414;53.436;8.828;2023-08-06T09:49:21;5.80;;;3.25;;
74059;SDS011;62414;53.436;8.828;2023-08-06T09:51:50;6.03;;;3.67;;
74059;SDS011;62414;53.436;8.828;2023-08-06T09:54:17;6.32;;;3.92;;
74059;SDS011;62414;53.436;8.828;2023-08-06T09:56:43;7.40;;;4.60;;
74059;SDS011;62414;53.436;8.828;2023-08-06T09:59:08;7.00;;;3.92;;
74059;SDS011;62414;53.436;8.828;2023-08-06T10:01:34;7.40;;;3.90;;
74059;SDS011;62414;53.436;8.828;2023-08-06T10:04:00;5.93;;;3.65;;
74059;SDS011;62414;53.436;8.828;2023-08-06T10:06:26;5.45;;;3.30;;
74059;SDS011;62414;53.436;8.828;2023-08-06T10:08:51;5.63;;;3.17;;
74059;SDS011;62414;53.436;8.828;2023-08-06T10:11:18;5.60;;;3.00;;
74059;SDS011;62414;53.436;8.828;2023-08-06T10:13:46;7.00;;;3.13;;
74059;SDS011;62414;53.436;8.828;2023-08-06T10:16:12;6.13;;;2.90;;
74059;SDS011;62414;53.436;8.828;2023-08-06T10:18:37;5.70;;;2.90;;
74059;SDS011;62414;53.436;8.828;2023-08-06T10:21:05;4.88;;;2.75;;
74059;SDS011;62414;53.436;8.828;2023-08-06T10:23:33;4.88;;;2.95;;
74059;SDS011;62414;53.436;8.828;2023-08-06T10:25:58;5.47;;;3.27;;
74059;SDS011;62414;53.436;8.828;2023-08-06T10:28:25;6.88;;;4.28;;
74059;SDS011;62414;53.436;8.828;2023-08-06T10:30:59;6.87;;;4.00;;
74059;SDS011;62414;53.436;8.828;2023-08-06T10:33:24;6.03;;;3.78;;
74059;SDS011;62414;53.436;8.828;2023-08-06T10:36:05;6.82;;;3.90;;
74059;SDS011;62414;53.436;8.828;2023-08-06T10:38:33;5.17;;;3.10;;
74059;SDS011;62414;53.436;8.828;2023-08-06T10:41:01;6.05;;;3.05;;
74059;SDS011;62414;53.436;8.828;2023-08-06T10:43:29;5.90;;;3.40;;
74059;SDS011;62414;53.436;8.828;2023-08-06T10:45:55;6.85;;;3.80;;
74059;SDS011;62414;53.436;8.828;2023-08-06T10:48:28;7.35;;;3.90;;
74059;SDS011;62414;53.436;8.828;2023-08-06T10:50:54;7.05;;;3.80;;
74059;SDS011;62414;53.436;8.828;2023-08-06T10:53:20;5.47;;;3.30;;
74059;SDS011;62414;53.436;8.828;2023-08-06T10:55:46;4.75;;;2.50;;
74059;SDS011;62414;53.436;8.828;2023-08-06T10:58:11;4.90;;;2.90;;
74059;SDS011;62414;53.436;8.828;2023-08-06T11:00:41;3.92;;;2.45;;
74059;SDS011;62414;53.436;8.828;2023-08-06T11:03:07;5.70;;;2.80;;
74059;SDS011;62414;53.436;8.828;2023-08-06T11:05:33;4.20;;;2.78;;
74059;SDS011;62414;53.436;8.828;2023-08-06T11:07:59;8.67;;;3.13;;
74059;SDS011;62414;53.436;8.828;2023-08-06T11:10:24;6.97;;;3.57;;
74059;SDS011;62414;53.436;8.828;2023-08-06T11:12:50;5.77;;;3.07;;
74059;SDS011;62414;53.436;8.828;2023-08-06T11:15:15;3.83;;;2.50;;
74059;SDS011;62414;53.436;8.828;2023-08-06T11:17:42;4.55;;;2.65;;
74059;SDS011;62414;53.436;8.828;2023-08-06T11:20:08;5.00;;;2.50;;
74059;SDS011;62414;53.436;8.828;2023-08-06T11:22:35;4.28;;;2.60;;
74059;SDS011;62414;53.436;8.828;2023-08-06T11:25:01;4.80;;;2.80;;
74059;SDS011;62414;53.436;8.828;2023-08-06T11:27:27;4.30;;;2.60;;
74059;SDS011;62414;53.436;8.828;2023-08-06T11:29:52;4.63;;;2.70;;
74059;SDS011;62414;53.436;8.828;2023-08-06T11:32:18;4.57;;;2.30;;
74059;SDS011;62414;53.436;8.828;2023-08-06T11:34:45;5.50;;;2.83;;
74059;SDS011;62414;53.436;8.828;2023-08-06T11:37:10;4.50;;;2.60;;
74059;SDS011;62414;53.436;8.828;2023-08-06T11:39:36;4.88;;;2.58;;
74059;SDS011;62414;53.436;8.828;2023-08-06T11:42:02;4.43;;;2.33;;
74059;SDS011;62414;53.436;8.828;2023-08-06T11:44:29;4.93;;;2.60;;
74059;SDS011;62414;53.436;8.828;2023-08-06T11:46:55;4.47;;;2.60;;
74059;SDS011;62414;53.436;8.828;2023-08-06T11:49:21;5.57;;;2.60;;
74059;SDS011;62414;53.436;8.828;2023-08-06T11:52:08;4.57;;;2.42;;
74059;SDS011;62414;53.436;8.828;2023-08-06T11:54:34;4.97;;;3.10;;
74059;SDS011;62414;53.436;8.828;2023-08-06T11:57:00;4.90;;;2.75;;
74059;SDS011;62414;53.436;8.828;2023-08-06T11:59:25;6.43;;;3.10;;
74059;SDS011;62414;53.436;8.828;2023-08-06T12:01:51;6.17;;;3.30;;
74059;SDS011;62414;53.436;8.828;2023-08-06T12:04:17;6.55;;;3.00;;
74059;SDS011;62414;53.436;8.828;2023-08-06T12:06:42;5.73;;;2.80;;
74059;SDS011;62414;53.436;8.828;2023-08-06T12:09:09;5.05;;;2.67;;
74059;SDS011;62414;53.436;8.828;2023-08-06T12:11:34;5.37;;;2.60;;
74059;SDS011;62414;53.436;8.828;2023-08-06T12:14:00;5.45;;;2.80;;
74059;SDS011;62414;53.436;8.828;2023-08-06T12:16:25;5.43;;;2.80;;
74059;SDS011;62414;53.436;8.828;2023-08-06T12:18:51;4.57;;;2.63;;
74059;SDS011;62414;53.436;8.828;2023-08-06T12:21:16;3.85;;;2.67;;
74059;SDS011;62414;53.436;8.828;2023-08-06T12:23:42;4.43;;;2.57;;
74059;SDS011;62414;53.436;8.828;2023-08-06T12:26:09;6.00;;;2.70;;
74059;SDS011;62414;53.436;8.828;2023-08-06T12:28:34;5.38;;;3.10;;
74059;SDS011;62414;53.436;8.828;2023-08-06T12:30:59;5.20;;;3.00;;
74059;SDS011;62414;53.436;8.828;2023-08-06T12:33:25;5.72;;;3.40;;
74059;SDS011;62414;53.436;8.828;2023-08-06T12:35:50;5.10;;;3.67;;
74059;SDS011;62414;53.436;8.828;2023-08-06T12:38:16;6.47;;;3.67;;
74059;SDS011;62414;53.436;8.828;2023-08-06T12:40:41;5.90;;;4.20;;
74059;SDS011;62414;53.436;8.828;2023-08-06T12:43:08;5.73;;;3.30;;
74059;SDS011;62414;53.436;8.828;2023-08-06T12:45:33;5.07;;;2.97;;
74059;SDS011;62414;53.436;8.828;2023-08-06T12:47:59;6.17;;;3.63;;
74059;SDS011;62414;53.436;8.828;2023-08-06T12:50:24;4.80;;;3.13;;
74059;SDS011;62414;53.436;8.828;2023-08-06T12:52:50;5.50;;;3.67;;
74059;SDS011;62414;53.436;8.828;2023-08-06T12:55:15;8.33;;;4.03;;
74059;SDS011;62414;53.436;8.828;2023-08-06T12:57:41;5.63;;;3.83;;
74059;SDS011;62414;53.436;8.828;2023-08-06T13:00:08;5.10;;;3.80;;
74059;SDS011;62414;53.436;8.828;2023-08-06T13:02:34;7.40;;;4.30;;
74059;SDS011;62414;53.436;8.828;2023-08-06T13:04:59;6.70;;;3.95;;
74059;SDS011;62414;53.436;8.828;2023-08-06T13:07:25;5.67;;;4.20;;
74059;SDS011;62414;53.436;8.828;2023-08-06T13:09:50;6.57;;;3.97;;
74059;SDS011;62414;53.436;8.828;2023-08-06T13:12:16;5.50;;;4.03;;
74059;SDS011;62414;53.436;8.828;2023-08-06T13:14:41;5.80;;;3.78;;
74059;SDS011;62414;53.436;8.828;2023-08-06T13:17:08;4.90;;;3.40;;
74059;SDS011;62414;53.436;8.828;2023-08-06T13:19:34;6.32;;;3.70;;
74059;SDS011;62414;53.436;8.828;2023-08-06T13:22:00;5.43;;;3.80;;
74059;SDS011;62414;53.436;8.828;2023-08-06T13:24:26;6.35;;;3.90;;
74059;SDS011;62414;53.436;8.828;2023-08-06T13:26:52;6.30;;;3.90;;
74059;SDS011;62414;53.436;8.828;2023-08-06T13:29:17;5.68;;;3.40;;
74059;SDS011;62414;53.436;8.828;2023-08-06T13:31:43;6.23;;;3.60;;
74059;SDS011;62414;53.436;8.828;2023-08-06T13:34:09;7.87;;;3.87;;
74059;SDS011;62414;53.436;8.828;2023-08-06T13:36:35;7.03;;;3.80;;
74059;SDS011;62414;53.436;8.828;2023-08-06T13:39:00;9.03;;;3.80;;
74059;SDS011;62414;53.436;8.828;2023-08-06T13:41:26;6.13;;;3.50;;
74059;SDS011;62414;53.436;8.828;2023-08-06T13:43:51;6.30;;;3.50;;
74059;SDS011;62414;53.436;8.828;2023-08-06T13:46:17;5.97;;;3.60;;
74059;SDS011;62414;53.436;8.828;2023-08-06T13:48:43;6.85;;;3.47;;
74059;SDS011;62414;53.436;8.828;2023-08-06T13:51:11;5.60;;;3.55;;
74059;SDS011;62414;53.436;8.828;2023-08-06T13:53:36;7.03;;;4.00;;
74059;SDS011;62414;53.436;8.828;2023-08-06T13:56:02;4.73;;;3.50;;
74059;SDS011;62414;53.436;8.828;2023-08-06T13:58:28;6.03;;;4.03;;
74059;SDS011;62414;53.436;8.828;2023-08-06T14:00:53;6.83;;;3.90;;
74059;SDS011;62414;53.436;8.828;2023-08-06T14:03:19;6.67;;;3.60;;
74059;SDS011;62414;53.436;8.828;2023-08-06T14:05:44;6.00;;;3.90;;
74059;SDS011;62414;53.436;8.828;2023-08-06T14:08:11;7.10;;;3.67;;
74059;SDS011;62414;53.436;8.828;2023-08-06T14:10:37;7.32;;;3.70;;
74059;SDS011;62414;53.436;8.828;2023-08-06T14:13:02;5.53;;;3.53;;
74059;SDS011;62414;53.436;8.828;2023-08-06T14:15:28;5.30;;;3.50;;
74059;SDS011;62414;53.436;8.828;2023-08-06T14:17:53;5.63;;;3.22;;
74059;SDS011;62414;53.436;8.828;2023-08-06T14:20:19;6.07;;;3.30;;
74059;SDS011;62414;53.436;8.828;2023-08-06T14:22:44;4.57;;;3.00;;
74059;SDS011;62414;53.436;8.828;2023-08-06T14:25:11;5.47;;;3.07;;
74059;SDS011;62414;53.436;8.828;2023-08-06T14:27:36;6.25;;;3.60;;
74059;SDS011;62414;53.436;8.828;2023-08-06T14:30:02;5.50;;;3.20;;
74059;SDS011;62414;53.436;8.828;2023-08-06T14:32:28;6.13;;;3.10;;
74059;SDS011;62414;53.436;8.828;2023-08-06T14:34:54;4.67;;;2.80;;
74059;SDS011;62414;53.436;8.828;2023-08-06T14:37:19;4.95;;;2.85;;